首页
METAR-TAF:

METAR-TAF

机场 :

明尼阿波利斯-圣保罗国际机场

明尼阿波利斯, 明尼蘇達州, 美国

纬度: 44-52-59N, 经度: 093-13-44W, 海拔: 256米

当前天气观测

该预报发布于1小时和1分钟前的13:53 UTC
风速4节,风向西北
温度 -16°C
湿度 84%
气压 1038 hPa
能見度: 16.1公里
少量云层高于20000英尺

METAR: KMSP 201353Z 31004KT 10SM FEW200 M16/M18 A3066 RMK AO2 SLP406 T11611183 $

时间: 08:54 (14:54 UTC)

预报

该预报发布于14分钟前的14:40 UTC
预报有效从20日的 15点(UTC)到 21日的 18点(UTC)
风速3节,风向多变
能見度: 10公里
天空无云

TAF: KMSP 201440Z 2015/2118 VRB03KT P6SM SKC

超过4000个机场的气象观测和天气预报(METAR&TAF报告)。

可查询的气象台以黄色和红色小点在地图上表示。

将鼠标移到小点上方,可查看气象台名称。

然后点击查看天气观测和预报。

如需切换地图:点击带黑十字的绿色按钮放大地图;点击带横线的绿色按钮缩小地图;或者点击绿色箭头查看邻近地区的地图。


METAR-TAF: